Fulton County Airport Brown Field
KFTY : now visible

Airfield :











YOU CAN JOIN US ON...

 
LOGIN :

Register | Disclaimer

   EN    FR    IT 

 









Legend :    VFR   Marginal VFR   IFR   Intensive IFR   Very Intensive IFR
Visi :
Ceiling :
>= 8 km
>= 3000ft
5 to 8 km
1000 to 3000 ft
1500m to 5 km
500 to 1000 ft
800 to 1500m
200 to 500 ft
< 800m
< 200 ft
Symbols :   Thunderstorms  Fog  Heavy snow  Heavy precipitations  Wind > 20 kt







- Airport Elevation : 841 ft


KFTY - Fulton County Brown Field

CURRENT METAR :
  • 191201Z VRB04KT 5SM RA BR BKN006 BKN025 OVC055 17/17 A2951 RMK AO2 LTG DSNT E-S P0003 T01720172

EXPIRED METARs :
  • 191153Z 11003KT 6SM RA BR SCT005 BKN027 OVC055 17/17 A2951 RMK AO2 LTG DSNT E-S SLP986 P0023 60161 70205 T01720172 10189 20167 58017
  • 191135Z VRB03KT 6SM RA BR BKN005 BKN031 OVC050 17/17 A2952 RMK AO2 LTG DSNT E-S P0018 T01720172
  • 191117Z 02003KT 4SM +RA BR FEW005 BKN046 OVC055 17/17 A2952 RMK AO2 LTG DSNT NE-S P0010 T01720172
  • 191053Z 13007KT 4SM RA BR FEW038 BKN048 OVC065 17/17 A2955 RMK AO2 LTG DSNT E-S SLP997 P0031 T01720172
  • 191023Z 13007KT 5SM VCTS RA BR FEW017 SCT031 OVC050 17/17 A2953 RMK AO2 LTG DSNT NE-S PRESFR P0017 T01720172
  • 191007Z 14007KT 3SM +RA BR FEW008 BKN016 OVC032 17/17 A2956 RMK AO2 LTG DSNT NE-S P0008 T01720172
  • 190953Z 14004KT 4SM VCTS RA BR FEW008 BKN014 OVC080 17/17 A2955 RMK AO2 LTG DSNT NE-S TSE37 SLP999 P0059 T01670167
  • 190940Z 15005KT 5SM VCTS RA BR BKN015 BKN040 OVC085 17/17 A2956 RMK AO2 LTG DSNT NE-S TSE37 P0051 T01670167

TAF KFTY
Valid from the 19 at 12:00 until the 20 at 12:00 UTC


191135Z 1912/2012 02003KT 4SM SHRA BR FEW005 BKN045 OVC060
FM191400 19011KT 5SM -SHRA OVC018
FM191600 22009KT P6SM -SHRA OVC020
FM192200 25014G23KT P6SM OVC015
FM200600 23011KT P6SM OVC018
FM201000 23011G19KT P6SM OVC015
KZTL FIR / North America



MET'MAP, your aeronautical weather chart ! - Copyright ORBIFLY December 2007 - Disclaimer

ORBIFLY MET'MAP TEAM :

Programming & Development : Alexandra Zaïnal
Concept & Development : Baudouin d'Aumeries
Co-Development & Prog : Marc-Olivier Méhu
Technical & hardware support : Manuel Goepfert

Contact : metmap@orbifly.com




SOURCES & CREDITS :

   NOAA       Earth
Advisory